createdAt,value
2018-09-12T00:00:57.068Z,3.00
2018-09-12T00:03:31.324Z,3.53
2018-09-12T00:06:05.887Z,3.03
2018-09-12T00:08:41.820Z,3.57
2018-09-12T00:11:17.878Z,3.57
2018-09-12T00:13:53.722Z,4.20
2018-09-12T00:16:28.176Z,3.77
2018-09-12T00:19:02.527Z,3.80
2018-09-12T00:21:38.847Z,3.27
2018-09-12T00:24:12.991Z,3.80
2018-09-12T00:26:49.148Z,3.53
2018-09-12T00:29:23.339Z,3.67
2018-09-12T00:31:59.015Z,3.57
2018-09-12T00:34:33.243Z,3.43
2018-09-12T00:37:07.639Z,4.00
2018-09-12T00:39:43.263Z,4.47
2018-09-12T00:42:19.131Z,3.20
2018-09-12T00:44:55.795Z,3.40
2018-09-12T00:47:30.219Z,4.10
2018-09-12T00:50:04.521Z,3.13
2018-09-12T00:52:39.055Z,3.83
2018-09-12T00:55:13.976Z,3.93
2018-09-12T00:57:48.447Z,3.43
2018-09-12T01:00:24.570Z,4.10
2018-09-12T01:02:59.003Z,3.33
2018-09-12T01:05:38.994Z,3.97
2018-09-12T01:08:14.606Z,4.10
2018-09-12T01:10:50.867Z,3.50
2018-09-12T01:13:27.225Z,3.90
2018-09-12T01:16:01.495Z,3.60
2018-09-12T01:18:35.775Z,5.13
2018-09-12T01:21:12.970Z,3.50
2018-09-12T01:23:49.246Z,3.67
2018-09-12T01:26:23.331Z,3.67
2018-09-12T01:28:58.399Z,4.23
2018-09-12T01:31:34.331Z,4.57
2018-09-12T01:34:08.516Z,4.20
2018-09-12T01:36:43.177Z,4.37
2018-09-12T01:39:19.543Z,4.43
2018-09-12T01:41:55.815Z,3.60
2018-09-12T01:44:30.536Z,3.60
2018-09-12T01:47:04.663Z,4.37
2018-09-12T01:49:39.226Z,3.50
2018-09-12T01:52:13.415Z,4.30
2018-09-12T01:54:48.002Z,4.57
2018-09-12T01:57:22.234Z,3.60
2018-09-12T01:59:58.704Z,3.40
2018-09-12T02:02:32.976Z,4.20
2018-09-12T02:05:07.665Z,3.93
2018-09-12T02:07:44.023Z,3.80
2018-09-12T02:10:20.513Z,3.43
2018-09-12T02:12:56.916Z,4.27
2018-09-12T02:15:31.982Z,3.93
2018-09-12T02:18:06.089Z,3.47
2018-09-12T02:20:42.528Z,4.43
2018-09-12T02:23:18.403Z,3.60
2018-09-12T02:25:52.579Z,3.87
2018-09-12T02:28:26.692Z,4.37
2018-09-12T02:31:04.273Z,3.63
2018-09-12T02:33:38.358Z,3.70
2018-09-12T02:36:18.113Z,4.00
2018-09-12T02:39:02.767Z,4.13
2018-09-12T02:41:38.246Z,3.50
2018-09-12T02:44:12.523Z,3.47
2018-09-12T02:46:46.787Z,4.00
2018-09-12T02:49:21.087Z,3.80
2018-09-12T02:51:57.339Z,4.07
2018-09-12T02:54:32.824Z,3.83
2018-09-12T02:57:07.212Z,3.83
2018-09-12T02:59:43.270Z,3.40
2018-09-12T03:02:19.582Z,3.73
2018-09-12T03:04:53.856Z,3.33
2018-09-12T03:07:30.016Z,3.90
2018-09-12T03:10:16.015Z,4.23
2018-09-12T03:12:51.244Z,3.33
2018-09-12T03:15:27.231Z,4.17
2018-09-12T03:18:01.355Z,3.80
2018-09-12T03:20:44.152Z,4.60
2018-09-12T03:23:18.580Z,4.37
2018-09-12T03:25:52.684Z,3.50
2018-09-12T03:28:28.972Z,4.10
2018-09-12T03:31:04.818Z,3.73
2018-09-12T03:33:38.949Z,3.80
2018-09-12T03:36:15.063Z,4.70
2018-09-12T03:38:51.126Z,4.10
2018-09-12T03:41:26.675Z,4.57
2018-09-12T03:44:01.040Z,4.63
2018-09-12T03:46:42.386Z,5.53
2018-09-12T03:49:16.455Z,4.47
2018-09-12T03:51:50.791Z,4.13
2018-09-12T03:54:24.919Z,4.17
2018-09-12T03:56:59.316Z,3.90
2018-09-12T03:59:35.238Z,4.30
2018-09-12T04:02:10.534Z,4.03
2018-09-12T04:04:44.704Z,4.90
2018-09-12T04:07:23.286Z,4.23
2018-09-12T04:10:00.712Z,3.83
2018-09-12T04:12:37.155Z,4.10
2018-09-12T04:15:13.291Z,4.97
2018-09-12T04:17:47.440Z,4.10
2018-09-12T04:20:23.011Z,4.50
2018-09-12T04:22:57.177Z,3.80
2018-09-12T04:25:32.803Z,4.20
2018-09-12T04:28:06.912Z,4.23
2018-09-12T04:30:43.462Z,4.73
2018-09-12T04:33:26.424Z,4.80
2018-09-12T04:36:00.755Z,3.90
2018-09-12T04:38:37.020Z,4.50
2018-09-12T04:41:13.289Z,4.83
2018-09-12T04:43:47.475Z,4.50
2018-09-12T04:46:21.738Z,4.43
2018-09-12T04:48:55.962Z,4.40
2018-09-12T04:51:30.284Z,4.53
2018-09-12T04:54:04.451Z,5.50
2018-09-12T04:56:39.162Z,4.87
2018-09-12T04:59:15.496Z,4.23
2018-09-12T05:01:52.127Z,6.50
2018-09-12T05:04:28.877Z,7.93
2018-09-12T05:07:05.065Z,6.30
2018-09-12T05:09:39.453Z,6.60
2018-09-12T05:12:15.754Z,7.10
2018-09-12T05:14:52.300Z,5.60
2018-09-12T05:17:27.582Z,4.70
2018-09-12T05:20:04.139Z,4.53
2018-09-12T05:22:41.826Z,5.10
2018-09-12T05:25:16.043Z,5.10
2018-09-12T05:27:50.275Z,5.70
2018-09-12T05:30:26.702Z,5.50
2018-09-12T05:33:03.830Z,5.30
2018-09-12T05:35:40.088Z,4.80
2018-09-12T05:38:21.967Z,4.70
2018-09-12T05:40:58.194Z,5.00
2018-09-12T05:43:32.518Z,4.90
2018-09-12T05:46:06.863Z,5.73
2018-09-12T05:48:42.430Z,4.80
2018-09-12T05:51:16.564Z,5.30
2018-09-12T05:53:52.934Z,5.00
2018-09-12T05:56:27.414Z,5.60
2018-09-12T05:59:03.129Z,6.00
2018-09-12T06:01:39.283Z,4.70
2018-09-12T06:04:13.845Z,4.57
2018-09-12T06:06:56.425Z,4.70
2018-09-12T06:09:31.645Z,5.10
2018-09-12T06:12:09.124Z,5.30
2018-09-12T06:14:44.164Z,4.57
2018-09-12T06:17:18.587Z,4.90
2018-09-12T06:19:54.632Z,4.90
2018-09-12T06:22:28.932Z,5.57
2018-09-12T06:25:03.390Z,5.40
2018-09-12T06:27:37.870Z,5.10
2018-09-12T06:30:23.221Z,4.90
2018-09-12T06:32:57.608Z,4.70
2018-09-12T06:35:32.299Z,5.97
2018-09-12T06:38:07.124Z,4.77
2018-09-12T06:40:43.523Z,4.57
2018-09-12T06:43:18.753Z,5.73
2018-09-12T06:47:19.836Z,4.77
2018-09-12T06:49:54.647Z,5.10
2018-09-12T06:52:29.074Z,4.90
2018-09-12T06:55:03.924Z,4.80
2018-09-12T06:57:38.444Z,4.07
2018-09-12T07:00:15.128Z,4.93
2018-09-12T07:02:49.491Z,4.70
2018-09-12T07:05:24.231Z,4.80
2018-09-12T07:09:29.226Z,5.53
2018-09-12T07:12:05.888Z,4.83
2018-09-12T07:14:40.707Z,4.03
2018-09-12T07:17:15.187Z,4.60
2018-09-12T07:19:57.279Z,5.40
2018-09-12T07:22:31.671Z,4.57
2018-09-12T07:25:07.740Z,4.03
2018-09-12T07:27:43.744Z,4.30
2018-09-12T07:32:46.058Z,4.13
2018-09-12T07:35:24.422Z,4.30
2018-09-12T07:37:59.004Z,3.70
2018-09-12T07:40:35.871Z,4.47
2018-09-12T07:43:10.326Z,4.20
2018-09-12T07:45:45.135Z,4.87
2018-09-12T07:48:20.657Z,4.10
2018-09-12T07:50:55.287Z,3.67
2018-09-12T07:53:29.891Z,4.10
2018-09-12T07:56:04.560Z,4.30
2018-09-12T07:58:40.296Z,5.53
2018-09-12T08:01:16.146Z,4.80
2018-09-12T08:03:50.619Z,4.73
2018-09-12T08:06:26.654Z,4.10
2018-09-12T08:09:02.127Z,4.37
2018-09-12T08:11:37.819Z,4.70
2018-09-12T08:14:12.362Z,3.70
2018-09-12T08:16:47.111Z,3.40
2018-09-12T08:19:30.322Z,5.00
2018-09-12T08:22:05.865Z,4.73
2018-09-12T08:24:41.448Z,3.40
2018-09-12T08:27:17.199Z,4.50
2018-09-12T08:29:52.924Z,4.50
2018-09-12T08:32:28.678Z,4.60
2018-09-12T08:35:03.179Z,4.53
2018-09-12T08:37:37.805Z,4.13
2018-09-12T08:40:13.811Z,4.27
2018-09-12T08:42:48.263Z,4.00
2018-09-12T08:45:22.688Z,4.10
2018-09-12T08:47:57.075Z,5.00
2018-09-12T08:50:31.528Z,4.43
2018-09-12T08:53:06.412Z,4.63
2018-09-12T08:55:40.744Z,4.57
2018-09-12T08:58:15.227Z,4.40
2018-09-12T09:00:56.664Z,4.77
2018-09-12T09:03:31.436Z,3.90
2018-09-12T09:06:05.887Z,5.43
2018-09-12T09:08:41.427Z,4.80
2018-09-12T09:11:17.395Z,4.90
2018-09-12T09:13:52.168Z,5.03
2018-09-12T09:16:26.424Z,5.47
2018-09-12T09:19:02.299Z,4.73
2018-09-12T09:21:38.369Z,6.10
2018-09-12T09:24:12.947Z,4.03
2018-09-12T09:26:48.347Z,5.40
2018-09-12T09:29:22.829Z,5.20
2018-09-12T09:31:58.484Z,5.20
2018-09-12T09:34:33.660Z,5.00
2018-09-12T09:37:08.255Z,5.33
2018-09-12T09:39:43.695Z,5.17
2018-09-12T09:42:18.225Z,5.47
2018-09-12T09:44:52.712Z,5.00
2018-09-12T09:47:27.163Z,4.73
2018-09-12T09:50:01.623Z,4.27
2018-09-12T09:52:36.299Z,5.00
2018-09-12T09:55:10.737Z,5.20
2018-09-12T09:57:45.708Z,5.03
2018-09-12T10:00:27.624Z,4.63
2018-09-12T10:03:07.579Z,4.20
2018-09-12T10:05:47.403Z,4.77
2018-09-12T10:08:31.507Z,4.23
2018-09-12T10:11:07.283Z,3.80
2018-09-12T10:13:41.856Z,3.20
2018-09-12T10:16:16.336Z,3.50
2018-09-12T10:18:50.871Z,4.20
2018-09-12T10:21:26.526Z,3.63
2018-09-12T10:24:02.067Z,4.40
2018-09-12T10:26:36.443Z,4.57
2018-09-12T10:29:10.972Z,4.20
2018-09-12T10:31:46.853Z,4.10
2018-09-12T10:34:21.276Z,3.83
2018-09-12T10:36:55.595Z,4.10
2018-09-12T10:39:31.236Z,4.20
2018-09-12T10:42:05.572Z,3.50
2018-09-12T10:44:40.164Z,4.77
2018-09-12T10:47:14.487Z,3.63
2018-09-12T10:49:49.315Z,3.87
2018-09-12T10:52:23.739Z,4.00
2018-09-12T10:54:58.148Z,3.93
2018-09-12T10:57:32.580Z,4.17
2018-09-12T11:00:08.889Z,4.40
2018-09-12T11:02:43.359Z,3.90
2018-09-12T11:05:18.005Z,3.80
2018-09-12T11:07:53.689Z,3.90
2018-09-12T11:10:29.528Z,3.80
2018-09-12T11:13:03.884Z,3.43
2018-09-12T11:15:38.409Z,4.80
2018-09-12T11:18:14.243Z,3.50
2018-09-12T11:20:49.649Z,3.30
2018-09-12T11:23:24.088Z,3.73
2018-09-12T11:25:58.540Z,2.90
2018-09-12T11:28:32.958Z,3.60
2018-09-12T11:31:08.711Z,3.10
2018-09-12T11:33:43.091Z,3.20
2018-09-12T11:36:17.472Z,3.43
2018-09-12T11:38:53.368Z,2.90
2018-09-12T11:41:29.023Z,2.80
2018-09-12T11:44:03.619Z,3.20
2018-09-12T11:46:38.248Z,3.27
2018-09-12T11:49:12.933Z,3.10
2018-09-12T11:51:48.475Z,2.70
2018-09-12T11:54:23.270Z,3.30
2018-09-12T11:56:57.635Z,3.93
2018-09-12T11:59:33.440Z,3.00
2018-09-12T12:02:08.030Z,3.80
2018-09-12T12:04:42.842Z,3.30
2018-09-12T12:07:18.449Z,3.17
2018-09-12T12:10:00.256Z,3.10
2018-09-12T12:12:35.993Z,3.10
2018-09-12T12:15:12.055Z,2.77
2018-09-12T12:17:47.918Z,2.30
2018-09-12T12:20:23.673Z,3.17
2018-09-12T12:22:57.991Z,3.57
2018-09-12T12:25:32.634Z,3.53
2018-09-12T12:28:06.877Z,2.50
2018-09-12T12:30:42.834Z,2.97
2018-09-12T12:33:17.411Z,2.83
2018-09-12T12:35:52.080Z,2.87
2018-09-12T12:38:35.110Z,2.80
2018-09-12T12:41:11.334Z,3.73
2018-09-12T12:43:46.769Z,2.70
2018-09-12T12:46:21.608Z,2.67
2018-09-12T12:48:56.201Z,2.97
2018-09-12T12:51:31.108Z,3.67
2018-09-12T12:54:05.975Z,2.43
2018-09-12T12:56:40.394Z,3.13
2018-09-12T12:59:15.890Z,2.63
2018-09-12T13:01:50.323Z,3.10
2018-09-12T13:04:24.557Z,3.30
2018-09-12T13:07:00.226Z,2.47
2018-09-12T13:09:34.325Z,3.00
2018-09-12T13:12:09.996Z,2.70
2018-09-12T13:14:45.737Z,3.43
2018-09-12T13:17:19.975Z,3.13
2018-09-12T13:20:10.528Z,2.80
2018-09-12T13:22:47.086Z,2.90
2018-09-12T13:25:21.283Z,2.50
2018-09-12T13:27:55.678Z,2.57
2018-09-12T13:30:31.334Z,2.77
2018-09-12T13:33:08.028Z,2.67
2018-09-12T13:35:42.425Z,3.10
2018-09-12T13:38:16.737Z,3.00
2018-09-12T13:40:52.505Z,3.10
2018-09-12T13:43:27.004Z,3.20
2018-09-12T13:46:01.755Z,3.10
2018-09-12T13:48:36.096Z,3.40
2018-09-12T13:51:10.912Z,3.07
2018-09-12T13:53:45.362Z,2.93
2018-09-12T13:56:20.030Z,2.47
2018-09-12T13:58:56.036Z,2.90
2018-09-12T14:01:30.396Z,2.57
2018-09-12T14:04:04.725Z,3.33
2018-09-12T14:06:40.629Z,2.80
2018-09-12T14:09:16.258Z,3.63
2018-09-12T14:11:51.991Z,3.30
2018-09-12T14:14:26.491Z,2.77
2018-09-12T14:17:01.012Z,2.80
2018-09-12T14:19:35.382Z,2.73
2018-09-12T14:22:10.743Z,2.67
2018-09-12T14:24:45.967Z,2.47
2018-09-12T14:27:19.993Z,2.70
2018-09-12T14:29:54.209Z,2.43
2018-09-12T14:32:29.948Z,2.83
2018-09-12T14:35:03.961Z,2.50
2018-09-12T14:37:38.310Z,2.73
2018-09-12T14:40:13.939Z,2.97
2018-09-12T14:42:48.497Z,2.60
2018-09-12T14:45:23.284Z,2.73
2018-09-12T14:47:58.185Z,2.77
2018-09-12T14:50:32.728Z,2.27
2018-09-12T14:53:07.463Z,2.70
2018-09-12T14:55:42.008Z,3.30
2018-09-12T14:58:17.155Z,2.30
2018-09-12T15:00:54.639Z,2.30
2018-09-12T15:03:29.479Z,3.10
2018-09-12T15:06:04.039Z,2.70
2018-09-12T15:08:40.685Z,2.90
2018-09-12T15:11:16.264Z,1.90
2018-09-12T15:13:51.866Z,2.80
2018-09-12T15:16:26.175Z,2.67
2018-09-12T15:19:00.602Z,3.60
2018-09-12T15:21:35.954Z,2.43
2018-09-12T15:24:10.419Z,2.60
2018-09-12T15:26:45.100Z,2.47
2018-09-12T15:29:19.610Z,2.57
2018-09-12T15:31:56.025Z,3.10
2018-09-12T15:34:30.619Z,2.73
2018-09-12T15:37:04.937Z,3.00
2018-09-12T15:39:40.354Z,2.80
2018-09-12T15:42:14.747Z,2.87
2018-09-12T15:44:48.887Z,2.77
2018-09-12T15:47:23.164Z,2.73
2018-09-12T15:49:57.316Z,2.50
2018-09-12T15:52:31.653Z,2.67
2018-09-12T15:55:05.699Z,2.90
2018-09-12T15:57:39.922Z,2.90
2018-09-12T16:00:15.374Z,3.00
2018-09-12T16:02:49.956Z,2.70
2018-09-12T16:05:25.535Z,3.10
2018-09-12T16:08:00.818Z,3.10
2018-09-12T16:10:36.999Z,2.97
2018-09-12T16:13:11.683Z,3.50
2018-09-12T16:15:46.147Z,2.87
2018-09-12T16:18:20.533Z,3.20
2018-09-12T16:20:56.193Z,3.10
2018-09-12T16:23:30.612Z,3.37
2018-09-12T16:26:05.358Z,2.93
2018-09-12T16:28:39.985Z,3.10
2018-09-12T16:31:16.071Z,3.93
2018-09-12T16:33:50.732Z,2.80
2018-09-12T16:36:25.423Z,3.07
2018-09-12T16:39:09.471Z,3.70
2018-09-12T16:41:44.317Z,3.07
2018-09-12T16:44:18.780Z,3.90
2018-09-12T16:46:53.111Z,3.57
2018-09-12T16:49:27.547Z,3.20
2018-09-12T16:52:02.246Z,2.63
2018-09-12T16:54:37.165Z,4.13
2018-09-12T16:57:15.209Z,3.37
2018-09-12T16:59:51.291Z,3.93
2018-09-12T17:02:27.472Z,4.23
2018-09-12T17:05:03.540Z,4.17
2018-09-12T17:07:40.447Z,3.47
2018-09-12T17:10:23.084Z,3.43
2018-09-12T17:12:57.735Z,3.57
2018-09-12T17:15:32.876Z,3.23
2018-09-12T17:18:07.656Z,3.00
2018-09-12T17:20:43.691Z,2.80
2018-09-12T17:23:18.270Z,3.30
2018-09-12T17:25:52.831Z,3.50
2018-09-12T17:28:27.307Z,3.10
2018-09-12T17:31:03.470Z,3.37
2018-09-12T17:33:38.212Z,4.10
2018-09-12T17:36:12.238Z,3.40
2018-09-12T17:38:47.807Z,4.07
2018-09-12T17:41:23.650Z,3.33
2018-09-12T17:43:57.970Z,4.17
2018-09-12T17:46:34.326Z,3.43
2018-09-12T17:49:08.703Z,3.77
2018-09-12T17:51:44.375Z,6.70
2018-09-12T17:54:18.780Z,9.07
2018-09-12T17:56:53.270Z,10.40
2018-09-12T17:59:29.402Z,6.10
2018-09-12T18:02:05.565Z,6.30
2018-09-12T18:04:40.715Z,7.47
2018-09-12T18:07:16.543Z,5.50
2018-09-12T18:10:00.876Z,4.67
2018-09-12T18:12:36.903Z,5.50
2018-09-12T18:15:11.445Z,4.30
2018-09-12T18:17:46.383Z,5.37
2018-09-12T18:23:09.106Z,4.70
2018-09-12T18:25:43.836Z,4.60
2018-09-12T18:28:18.345Z,5.40
2018-09-12T18:30:54.297Z,5.80
2018-09-12T18:33:29.081Z,4.90
2018-09-12T18:36:03.698Z,5.67
2018-09-12T18:38:44.475Z,4.50
2018-09-12T18:41:20.063Z,5.33
2018-09-12T18:43:54.637Z,5.30
2018-09-12T18:46:29.300Z,5.30
2018-09-12T18:49:03.758Z,5.87
2018-09-12T18:51:38.205Z,5.30
2018-09-12T18:54:12.694Z,6.90
2018-09-12T18:56:46.979Z,5.60
2018-09-12T18:59:24.930Z,5.30
2018-09-12T19:01:59.487Z,6.70
2018-09-12T19:04:34.075Z,5.40
2018-09-12T19:07:09.789Z,6.23
2018-09-12T19:09:43.990Z,5.37
2018-09-12T19:12:20.143Z,6.13
2018-09-12T19:14:54.498Z,5.70
2018-09-12T19:17:28.950Z,5.37
2018-09-12T19:20:03.649Z,6.00
2018-09-12T19:22:39.236Z,5.90
2018-09-12T19:25:13.807Z,5.17
2018-09-12T19:27:56.683Z,6.00
2018-09-12T19:30:36.442Z,5.90
2018-09-12T19:33:10.778Z,5.20
2018-09-12T19:35:45.387Z,5.47
2018-09-12T19:38:19.835Z,4.90
2018-09-12T19:40:55.796Z,4.97
2018-09-12T19:43:30.175Z,4.70
2018-09-12T19:46:04.753Z,5.33
2018-09-12T19:48:39.513Z,4.60
2018-09-12T19:51:15.947Z,3.90
2018-09-12T19:53:50.359Z,5.00
2018-09-12T19:56:28.217Z,6.00
2018-09-12T19:59:04.068Z,5.17
2018-09-12T20:01:38.567Z,6.27
2018-09-12T20:04:13.507Z,4.40
2018-09-12T20:06:57.391Z,4.60
2018-09-12T20:09:32.476Z,4.77
2018-09-12T20:12:08.444Z,5.00
2018-09-12T20:14:44.262Z,4.93
2018-09-12T20:17:19.071Z,4.57
2018-09-12T20:19:54.855Z,4.37
2018-09-12T20:22:30.555Z,4.50
2018-09-12T20:25:05.018Z,4.93
2018-09-12T20:27:39.417Z,4.93
2018-09-12T20:30:23.330Z,4.40
2018-09-12T20:32:57.591Z,5.07
2018-09-12T20:35:31.808Z,5.17
2018-09-12T20:38:06.006Z,4.60
2018-09-12T20:40:41.722Z,4.63
2018-09-12T20:43:15.910Z,5.63
2018-09-12T20:45:50.051Z,5.37
2018-09-12T20:48:24.242Z,5.40
2018-09-12T20:50:58.740Z,5.10
2018-09-12T20:53:34.678Z,5.40
2018-09-12T20:56:09.111Z,6.00
2018-09-12T20:58:44.928Z,5.10
2018-09-12T21:01:19.763Z,5.70
2018-09-12T21:03:53.967Z,4.97
2018-09-12T21:06:36.575Z,6.10
2018-09-12T21:09:13.288Z,5.37
2018-09-12T21:11:48.894Z,5.60
2018-09-12T21:14:23.129Z,6.53
2018-09-12T21:16:57.930Z,6.37
2018-09-12T21:19:32.335Z,5.83
2018-09-12T21:22:08.232Z,5.60
2018-09-12T21:24:42.323Z,5.30
2018-09-12T21:27:16.846Z,5.77
2018-09-12T21:29:51.100Z,5.60
2018-09-12T21:32:27.003Z,5.90
2018-09-12T21:35:01.514Z,5.40
2018-09-12T21:37:36.076Z,7.60
2018-09-12T21:40:11.875Z,9.20
2018-09-12T21:42:46.581Z,9.20
2018-09-12T21:45:20.769Z,6.37
2018-09-12T21:47:55.404Z,6.83
2018-09-12T21:50:31.303Z,6.70
2018-09-12T21:53:05.932Z,5.73
2018-09-12T21:55:40.370Z,5.33
2018-09-12T21:58:14.675Z,5.57
2018-09-12T22:00:50.688Z,6.10
2018-09-12T22:03:25.259Z,5.40
2018-09-12T22:05:59.522Z,4.73
2018-09-12T22:08:35.088Z,5.70
2018-09-12T22:11:10.767Z,5.67
2018-09-12T22:13:45.867Z,5.00
2018-09-12T22:16:20.556Z,5.30
2018-09-12T22:18:54.799Z,5.57
2018-09-12T22:21:30.695Z,5.40
2018-09-12T22:24:04.832Z,6.07
2018-09-12T22:26:39.259Z,5.60
2018-09-12T22:29:13.255Z,5.50
2018-09-12T22:31:48.673Z,5.93
2018-09-12T22:34:24.620Z,5.03
2018-09-12T22:36:59.699Z,5.40
2018-09-12T22:39:35.041Z,4.80
2018-09-12T22:42:10.258Z,5.60
2018-09-12T22:44:44.971Z,5.80
2018-09-12T22:47:23.398Z,6.33
2018-09-12T22:49:59.839Z,5.67
2018-09-12T22:52:36.750Z,5.87
2018-09-12T22:55:11.344Z,5.43
2018-09-12T22:57:46.236Z,6.13
2018-09-12T23:00:22.771Z,6.67
2018-09-12T23:02:57.335Z,5.30
2018-09-12T23:05:31.807Z,5.70
2018-09-12T23:08:08.126Z,8.00
2018-09-12T23:10:45.647Z,7.90
2018-09-12T23:13:20.388Z,5.47
2018-09-12T23:15:56.921Z,5.27
2018-09-12T23:18:31.982Z,5.97
2018-09-12T23:21:08.086Z,5.67
2018-09-12T23:23:43.773Z,6.30
2018-09-12T23:26:18.471Z,6.40
2018-09-12T23:28:52.996Z,6.43
2018-09-12T23:31:28.663Z,6.47
2018-09-12T23:34:02.979Z,6.20
2018-09-12T23:36:37.060Z,5.53
2018-09-12T23:39:13.857Z,6.23
2018-09-12T23:41:48.959Z,5.67
2018-09-12T23:44:24.563Z,6.53
2018-09-12T23:47:00.192Z,5.90
2018-09-12T23:49:34.563Z,5.40
2018-09-12T23:52:08.662Z,5.50
2018-09-12T23:54:43.006Z,5.30
2018-09-12T23:57:17.195Z,6.40
2018-09-12T23:59:52.688Z,6.70
